Thursday, January 17, 2019, 5:07 AM CST
Back to Local

KGYY, Gary Regional

Location: Gary, IN, United States Lat: 41.617
Local Time: 5:07 AM CST (11:07 GMT) Lon: -87.417
Time Zone: US/Central Elev: 590 ft

Show me the last for .
Show Decoded

2019-01-17 04:45 METAR KGYY 171045Z 12005KT 10SM OVC021 M01/M04 A3015 =
2019-01-17 04:15 METAR KGYY 171015Z AUTO 11004KT 10SM OVC021 M01/M05 A3016 RMK AO2 T10101050 =
2019-01-17 03:55 METAR KGYY 170955Z AUTO 12003KT 10SM OVC023 M01/M05 A3017 RMK AO2 T10111052 =
2019-01-17 03:35 METAR KGYY 170935Z AUTO 10003KT 10SM OVC023 M01/M06 A3018 RMK AO2 T10121056 =
2019-01-17 03:15 METAR KGYY 170915Z AUTO 10003KT 10SM BKN023 OVC030 M01/M06 A3019 RMK AO2
                 T10121057 =
2019-01-17 02:55 METAR KGYY 170855Z AUTO 11003KT 10SM OVC025 M01/M06 A3020 RMK AO2 T10131057 =
2019-01-17 02:35 METAR KGYY 170835Z AUTO 00000KT 10SM OVC025 M01/M06 A3020 RMK AO2 T10131057 =
2019-01-17 02:15 METAR KGYY 170815Z AUTO 08005KT 10SM OVC027 M01/M06 A3021 RMK AO2 T10121057 =
2019-01-17 01:55 METAR KGYY 170755Z AUTO 09006KT 10SM OVC029 M01/M06 A3021 RMK AO2 T10131060 =
2019-01-17 01:35 METAR KGYY 170735Z AUTO 08004KT 10SM OVC029 M01/M06 A3021 RMK AO2 T10131061 =
2019-01-17 01:15 METAR KGYY 170715Z AUTO 09006KT 10SM OVC031 M01/M06 A3022 RMK AO2 T10111062 =
2019-01-17 00:55 METAR KGYY 170655Z AUTO 10004KT 10SM OVC031 M01/M05 A3023 RMK AO2 T10111052 =
2019-01-17 00:35 METAR KGYY 170635Z AUTO 08003KT 10SM OVC031 M01/M06 A3023 RMK AO2 T10151056 =
2019-01-17 00:15 METAR KGYY 170615Z AUTO 10003KT 10SM OVC031 M01/M06 A3024 RMK AO2 T10151060 =
2019-01-16 23:55 METAR KGYY 170555Z AUTO 10007KT 10SM OVC031 M01/M06 A3024 RMK AO2 T10151059
                 10000 21015 400211015 =
2019-01-16 23:35 METAR KGYY 170535Z AUTO 10008KT 10SM OVC031 M01/M05 A3025 RMK AO2 T10131054 =
2019-01-16 23:15 METAR KGYY 170515Z AUTO 10005KT 10SM OVC031 M01/M05 A3026 RMK AO2 T10101052 =
2019-01-16 22:55 METAR KGYY 170455Z AUTO 11005KT 10SM OVC033 00/M05 A3026 RMK AO2 T10051050 =
2019-01-16 22:35 METAR KGYY 170435Z AUTO 07008KT 10SM OVC033 M01/M05 A3027 RMK AO2 T10061052 =
2019-01-16 22:15 METAR KGYY 170415Z AUTO 07008KT 10SM BKN033 M01/M05 A3027 RMK AO2 T10071054 =
2019-01-16 21:45 METAR KGYY 170345Z 06007KT 10SM BKN033 M01/M05 A3028 =
2019-01-16 20:45 METAR KGYY 170245Z 09006KT 10SM OVC029 M01/M05 A3028 =
2019-01-16 19:45 METAR KGYY 170145Z 08008KT 10SM OVC023 00/M05 A3029 =
2019-01-16 18:45 METAR KGYY 170045Z 07008KT 10SM OVC023 00/M04 A3030 =
2019-01-16 17:45 METAR KGYY 162345Z 07012KT 10SM SCT021 OVC028 00/M04 A3028 =
2019-01-16 16:45 METAR KGYY 162245Z 05010KT 10SM SCT020 OVC028 00/M04 A3027 =
2019-01-16 15:45 METAR KGYY 162145Z 04010KT 10SM OVC020 00/M03 A3026 =
2019-01-16 14:45 METAR KGYY 162045Z 05010KT 10SM OVC021 01/M03 A3027 =
2019-01-16 13:45 METAR KGYY 161945Z 34007KT 10SM OVC033 01/M05 A3025 =
2019-01-16 12:45 METAR KGYY 161845Z 35007KT 10SM OVC037 02/M05 A3025 =
2019-01-16 11:45 METAR KGYY 161745Z 36009KT 10SM OVC035 01/M05 A3027 =
2019-01-16 10:45 METAR KGYY 161645Z 36009KT 10SM OVC033 01/M05 A3027 =
2019-01-16 09:45 METAR KGYY 161545Z 35010KT 10SM OVC033 01/M04 A3026 =
2019-01-16 08:45 METAR KGYY 161445Z 35009KT 10SM OVC033 01/M03 A3022 =
2019-01-16 07:45 METAR KGYY 161345Z 34014KT 10SM OVC031 01/M03 A3020 =
2019-01-16 06:45 METAR KGYY 161245Z 33009KT 10SM OVC027 02/M03 A3017 =
2019-01-16 05:45 METAR KGYY 161145Z 31011KT 10SM SCT020 OVC025 02/M02 A3015 =

Support USWX by starting your Amazon purchase here.